createdAt,value
2018-07-20T00:02:21.473Z,100043.47
2018-07-20T00:04:52.461Z,100040.78
2018-07-20T00:07:23.495Z,100040.33
2018-07-20T00:09:54.460Z,100044.37
2018-07-20T00:12:25.497Z,100040.39
2018-07-20T00:14:56.529Z,100033.09
2018-07-20T00:17:27.510Z,100037.70
2018-07-20T00:19:58.461Z,100037.86
2018-07-20T00:22:29.563Z,100037.33
2018-07-20T00:25:00.445Z,100024.60
2018-07-20T00:27:31.469Z,100028.06
2018-07-20T00:30:02.525Z,100019.50
2018-07-20T00:32:33.460Z,100025.42
2018-07-20T00:35:04.453Z,100023.67
2018-07-20T00:37:35.468Z,100018.97
2018-07-20T00:40:06.484Z,100021.91
2018-07-20T00:42:37.477Z,100027.80
2018-07-20T00:45:08.536Z,100014.84
2018-07-20T00:47:40.684Z,100023.44
2018-07-20T00:50:11.562Z,100020.95
2018-07-20T00:52:42.504Z,100019.48
2018-07-20T00:55:13.514Z,100020.31
2018-07-20T00:57:44.549Z,100016.39
2018-07-20T01:00:15.508Z,100016.52
2018-07-20T01:02:46.496Z,100015.05
2018-07-20T01:05:17.437Z,100004.77
2018-07-20T01:07:48.421Z,100003.47
2018-07-20T01:10:19.427Z,100003.67
2018-07-20T01:12:50.448Z,100004.20
2018-07-20T01:15:21.695Z,100003.43
2018-07-20T01:17:52.532Z,100001.69
2018-07-20T01:20:23.527Z,99993.90
2018-07-20T01:22:54.481Z,99997.29
2018-07-20T01:25:25.472Z,100000.44
2018-07-20T01:27:57.010Z,100003.30
2018-07-20T01:30:28.282Z,100004.41
2018-07-20T01:32:59.399Z,100002.32
2018-07-20T01:35:30.524Z,100000.34
2018-07-20T01:38:01.502Z,100005.51
2018-07-20T01:40:32.473Z,99995.70
2018-07-20T01:43:03.473Z,100000.03
2018-07-20T01:45:34.511Z,99993.83
2018-07-20T01:48:05.466Z,99997.72
2018-07-20T01:50:36.521Z,100002.39
2018-07-20T01:53:07.585Z,100004.67
2018-07-20T01:55:38.496Z,100001.06
2018-07-20T01:58:09.487Z,99999.19
2018-07-20T02:00:40.569Z,100008.02
2018-07-20T02:03:11.493Z,100002.71
2018-07-20T02:05:42.425Z,100003.16
2018-07-20T02:08:13.453Z,100002.91
2018-07-20T02:10:44.449Z,100001.69
2018-07-20T02:13:15.466Z,100006.82
2018-07-20T02:15:46.480Z,100008.86
2018-07-20T02:18:17.447Z,100006.12
2018-07-20T02:20:48.695Z,100006.68
2018-07-20T02:23:19.679Z,100008.17
2018-07-20T02:25:50.556Z,100004.89
2018-07-20T02:28:21.488Z,100004.89
2018-07-20T02:30:52.455Z,100002.05
2018-07-20T02:33:23.453Z,100000.01
2018-07-20T02:35:54.421Z,99999.20
2018-07-20T02:38:25.421Z,99996.13
2018-07-20T02:40:56.498Z,99995.59
2018-07-20T02:43:27.497Z,99988.55
2018-07-20T02:45:58.497Z,99987.57
2018-07-20T02:48:29.491Z,99990.62
2018-07-20T02:51:00.679Z,99994.79
2018-07-20T02:53:31.543Z,99995.94
2018-07-20T02:56:02.490Z,99997.34
2018-07-20T02:58:33.479Z,99992.22
2018-07-20T03:01:04.486Z,99992.27
2018-07-20T03:03:35.479Z,99992.58
2018-07-20T03:06:06.643Z,99994.80
2018-07-20T03:08:37.507Z,99996.35
2018-07-20T03:11:08.520Z,99990.14
2018-07-20T03:13:39.524Z,99993.11
2018-07-20T03:16:10.541Z,99989.83
2018-07-20T03:18:41.502Z,99990.08
2018-07-20T03:21:12.539Z,99997.41
2018-07-20T03:23:43.520Z,99991.36
2018-07-20T03:26:14.515Z,99995.83
2018-07-20T03:28:45.463Z,99993.15
2018-07-20T03:31:16.442Z,99990.77
2018-07-20T03:33:47.457Z,99996.38
2018-07-20T03:36:18.434Z,99996.98
2018-07-20T03:38:49.714Z,99995.09
2018-07-20T03:41:20.553Z,99990.03
2018-07-20T03:43:51.457Z,99995.75
2018-07-20T03:46:22.413Z,99994.91
2018-07-20T03:48:53.473Z,99995.17
2018-07-20T03:51:24.452Z,99988.83
2018-07-20T03:53:55.462Z,99993.22
2018-07-20T03:56:26.460Z,99983.58
2018-07-20T03:58:57.506Z,99981.59
2018-07-20T04:01:28.514Z,99982.51
2018-07-20T04:03:59.477Z,99982.27
2018-07-20T04:06:30.422Z,99977.91
2018-07-20T04:09:01.526Z,99983.92
2018-07-20T04:11:32.517Z,99977.91
2018-07-20T04:14:03.505Z,99978.61
2018-07-20T04:16:34.477Z,99977.14
2018-07-20T04:19:05.555Z,99975.85
2018-07-20T04:21:36.499Z,99977.02
2018-07-20T04:24:07.404Z,99977.00
2018-07-20T04:26:38.425Z,99971.09
2018-07-20T04:29:09.418Z,99977.84
2018-07-20T04:31:41.811Z,99971.04
2018-07-20T04:34:12.537Z,99974.67
2018-07-20T04:36:43.490Z,99968.28
2018-07-20T04:39:15.605Z,99972.66
2018-07-20T04:41:46.481Z,99971.25
2018-07-20T04:44:17.457Z,99971.70
2018-07-20T04:46:48.496Z,99966.90
2018-07-20T04:49:19.470Z,99975.43
2018-07-20T04:51:50.499Z,99972.91
2018-07-20T04:54:21.400Z,99972.75
2018-07-20T04:56:52.437Z,99977.91
2018-07-20T04:59:23.398Z,99970.77
2018-07-20T05:01:54.484Z,99977.41
2018-07-20T05:04:25.459Z,99968.39
2018-07-20T05:06:56.516Z,99973.84
2018-07-20T05:09:27.497Z,99970.84
2018-07-20T05:11:58.514Z,99974.02
2018-07-20T05:14:29.512Z,99975.12
2018-07-20T05:17:00.558Z,99972.67
2018-07-20T05:19:31.525Z,99969.64
2018-07-20T05:22:02.533Z,99974.61
2018-07-20T05:24:33.512Z,99972.70
2018-07-20T05:27:04.546Z,99974.66
2018-07-20T05:29:35.533Z,99968.02
2018-07-20T05:32:06.599Z,99970.53
2018-07-20T05:34:37.518Z,99961.77
2018-07-20T05:37:08.499Z,99964.45
2018-07-20T05:39:39.477Z,99958.98
2018-07-20T05:42:10.635Z,99957.20
2018-07-20T05:44:41.481Z,99958.91
2018-07-20T05:47:13.029Z,99959.25
2018-07-20T05:49:44.278Z,99952.92
2018-07-20T05:52:15.354Z,99956.52
2018-07-20T05:54:46.359Z,99952.56
2018-07-20T05:57:17.400Z,99953.89
2018-07-20T05:59:48.463Z,99945.32
2018-07-20T06:02:19.488Z,99947.67
2018-07-20T06:04:50.480Z,99949.06
2018-07-20T06:07:21.471Z,99948.53
2018-07-20T06:09:52.506Z,99947.45
2018-07-20T06:12:23.699Z,99946.73
2018-07-20T06:14:54.559Z,99937.98
2018-07-20T06:17:25.509Z,99937.53
2018-07-20T06:19:56.474Z,99937.98
2018-07-20T06:22:27.514Z,99938.45
2018-07-20T06:24:58.472Z,99934.96
2018-07-20T06:27:29.538Z,99938.97
2018-07-20T06:30:00.508Z,99936.62
2018-07-20T06:32:31.480Z,99937.55
2018-07-20T06:35:02.473Z,99934.76
2018-07-20T06:37:33.785Z,99936.39
2018-07-20T06:40:04.540Z,99931.34
2018-07-20T06:42:35.464Z,99927.40
2018-07-20T06:45:07.497Z,99931.96
2018-07-20T06:47:38.428Z,99932.14
2018-07-20T06:50:14.597Z,99932.23
2018-07-20T06:52:46.758Z,99931.77
2018-07-20T06:55:17.621Z,99932.45
2018-07-20T06:57:48.538Z,99939.02
2018-07-20T07:00:19.485Z,99939.37
2018-07-20T07:02:50.402Z,99944.91
2018-07-20T07:05:21.493Z,99948.09
2018-07-20T07:07:52.484Z,99945.70
2018-07-20T07:10:23.510Z,99937.36
2018-07-20T07:12:54.471Z,99945.34
2018-07-20T07:15:25.450Z,99942.69
2018-07-20T07:17:56.415Z,99935.31
2018-07-20T07:20:27.481Z,99932.28
2018-07-20T07:22:58.429Z,99935.82
2018-07-20T07:25:29.488Z,99936.84
2018-07-20T07:28:00.476Z,99935.48
2018-07-20T07:30:31.522Z,99938.03
2018-07-20T07:33:02.469Z,99941.88
2018-07-20T07:35:33.472Z,99932.83
2018-07-20T07:38:04.542Z,99942.48
2018-07-20T07:40:35.601Z,99943.84
2018-07-20T07:43:06.541Z,99937.40
2018-07-20T07:45:37.531Z,99931.64
2018-07-20T07:48:08.610Z,99934.18
2018-07-20T07:50:39.666Z,99932.77
2018-07-20T07:53:10.573Z,99931.02
2018-07-20T07:55:41.461Z,99929.38
2018-07-20T07:58:12.518Z,99925.55
2018-07-20T08:00:43.421Z,99920.54
2018-07-20T08:03:14.497Z,99922.10
2018-07-20T08:05:46.350Z,99921.01
2018-07-20T08:08:17.378Z,99910.19
2018-07-20T08:10:48.663Z,99916.06
2018-07-20T08:13:19.501Z,99918.99
2018-07-20T08:15:50.519Z,99916.69
2018-07-20T08:18:21.536Z,99920.08
2018-07-20T08:20:52.481Z,99918.95
2018-07-20T08:23:24.330Z,99921.30
2018-07-20T08:25:55.668Z,99920.49
2018-07-20T08:28:26.759Z,99918.05
2018-07-20T08:30:58.423Z,99913.42
2018-07-20T08:33:29.574Z,99912.13
2018-07-20T08:36:00.499Z,99910.83
2018-07-20T08:38:31.457Z,99896.84
2018-07-20T08:41:02.495Z,99910.72
2018-07-20T08:43:33.801Z,99908.87
2018-07-20T08:46:04.565Z,99901.27
2018-07-20T08:48:35.509Z,99900.38
2018-07-20T08:51:06.485Z,99898.33
2018-07-20T08:53:37.481Z,99889.58
2018-07-20T08:56:08.474Z,99897.73
2018-07-20T08:58:39.426Z,99889.97
2018-07-20T09:01:11.005Z,99882.69
2018-07-20T09:03:42.304Z,99889.64
2018-07-20T09:06:13.391Z,99881.97
2018-07-20T09:08:44.461Z,99880.61
2018-07-20T09:11:15.450Z,99879.17
2018-07-20T09:13:46.592Z,99873.75
2018-07-20T09:16:17.429Z,99873.49
2018-07-20T09:18:49.261Z,99874.22
2018-07-20T09:21:20.349Z,99871.34
2018-07-20T09:23:51.366Z,99867.06
2018-07-20T09:26:22.438Z,99875.47
2018-07-20T09:28:53.472Z,99872.39
2018-07-20T09:31:24.461Z,99874.19
2018-07-20T09:33:55.780Z,99871.39
2018-07-20T09:36:26.526Z,99866.34
2018-07-20T09:38:57.465Z,99868.97
2018-07-20T09:41:28.534Z,99863.26
2018-07-20T09:43:59.449Z,99858.85
2018-07-20T09:46:30.456Z,99863.50
2018-07-20T09:49:01.887Z,99851.86
2018-07-20T09:51:32.770Z,99849.29
2018-07-20T09:54:03.232Z,99847.60
2018-07-20T09:56:34.386Z,99856.33
2018-07-20T09:59:06.625Z,99854.71
2018-07-20T10:01:38.384Z,99851.44
2018-07-20T10:04:09.499Z,99852.22
2018-07-20T10:06:40.725Z,99842.73
2018-07-20T10:11:55.436Z,99838.25
2018-07-20T10:14:26.405Z,99844.89
2018-07-20T10:16:57.582Z,99854.02
2018-07-20T10:19:28.480Z,99846.34
2018-07-20T10:21:59.439Z,99841.06
2018-07-20T10:24:30.460Z,99844.05
2018-07-20T10:27:01.455Z,99840.98
2018-07-20T10:29:32.473Z,99841.06
2018-07-20T10:32:03.451Z,99830.56
2018-07-20T10:34:34.454Z,99827.32
2018-07-20T10:37:05.746Z,99824.69
2018-07-20T10:39:36.561Z,99824.88
2018-07-20T10:42:07.575Z,99825.11
2018-07-20T10:44:38.656Z,99819.61
2018-07-20T10:47:09.468Z,99824.07
2018-07-20T10:49:40.441Z,99821.57
2018-07-20T10:52:11.495Z,99818.06
2018-07-20T10:54:42.459Z,99817.86
2018-07-20T10:57:13.457Z,99812.42
2018-07-20T10:59:44.430Z,99815.12
2018-07-20T11:02:15.462Z,99810.66
2018-07-20T11:04:47.020Z,99806.19
2018-07-20T11:07:18.292Z,99801.69
2018-07-20T11:09:49.398Z,99805.86
2018-07-20T11:12:20.460Z,99800.36
2018-07-20T11:14:51.511Z,99801.27
2018-07-20T11:17:22.497Z,99798.94
2018-07-20T11:19:53.513Z,99799.17
2018-07-20T11:22:24.473Z,99787.91
2018-07-20T11:24:55.547Z,99783.34
2018-07-20T11:27:26.496Z,99782.55
2018-07-20T11:29:57.445Z,99786.05
2018-07-20T11:32:28.473Z,99779.48
2018-07-20T11:34:59.475Z,99772.45
2018-07-20T11:37:30.489Z,99770.22
2018-07-20T11:40:01.518Z,99771.45
2018-07-20T11:42:32.473Z,99767.13
2018-07-20T11:45:03.510Z,99761.66
2018-07-20T11:47:35.312Z,99761.80
2018-07-20T11:50:06.734Z,99763.75
2018-07-20T11:52:37.558Z,99762.39
2018-07-20T11:55:08.516Z,99752.41
2018-07-20T11:57:39.451Z,99753.18
2018-07-20T12:00:10.473Z,99762.13
2018-07-20T12:02:41.424Z,99756.17
2018-07-20T12:05:12.471Z,99742.30
2018-07-20T12:07:43.450Z,99744.23
2018-07-20T12:10:14.485Z,99742.80
2018-07-20T12:12:45.454Z,99737.56
2018-07-20T12:15:16.494Z,99744.83
2018-07-20T12:17:47.468Z,99742.72
2018-07-20T12:20:18.500Z,99735.84
2018-07-20T12:22:50.315Z,99730.38
2018-07-20T12:25:21.353Z,99730.67
2018-07-20T12:27:52.832Z,99729.16
2018-07-20T12:30:23.289Z,99727.70
2018-07-20T12:32:54.518Z,99726.41
2018-07-20T12:35:25.485Z,99724.12
2018-07-20T12:37:56.452Z,99723.23
2018-07-20T12:40:27.478Z,99715.32
2018-07-20T12:42:58.463Z,99711.66
2018-07-20T12:45:29.510Z,99712.81
2018-07-20T12:48:00.460Z,99713.52
2018-07-20T12:50:31.505Z,99715.16
2018-07-20T12:53:02.452Z,99711.00
2018-07-20T12:55:33.421Z,99708.99
2018-07-20T12:58:04.418Z,99706.78
2018-07-20T13:00:35.453Z,99706.28
2018-07-20T13:03:06.499Z,99702.78
2018-07-20T13:05:37.477Z,99705.20
2018-07-20T13:08:08.465Z,99708.60
2018-07-20T13:10:39.445Z,99708.02
2018-07-20T13:13:10.469Z,99697.38
2018-07-20T13:15:41.445Z,99700.36
2018-07-20T13:18:12.948Z,99703.90
2018-07-20T13:20:43.739Z,99697.15
2018-07-20T13:23:14.530Z,99697.78
2018-07-20T13:25:45.565Z,99700.95
2018-07-20T13:28:16.469Z,99702.98
2018-07-20T13:30:47.523Z,99693.55
2018-07-20T13:33:18.496Z,99695.91
2018-07-20T13:35:49.529Z,99684.88
2018-07-20T13:38:20.506Z,99691.86
2018-07-20T13:40:51.534Z,99682.30
2018-07-20T13:43:22.521Z,99681.02
2018-07-20T13:45:53.504Z,99673.95
2018-07-20T13:48:24.465Z,99669.30
2018-07-20T13:50:55.744Z,99660.25
2018-07-20T13:53:26.615Z,99662.23
2018-07-20T13:55:57.602Z,99646.20
2018-07-20T13:58:28.513Z,99642.11
2018-07-20T14:00:59.524Z,99645.30
2018-07-20T14:03:30.461Z,99646.08
2018-07-20T14:06:01.491Z,99648.50
2018-07-20T14:08:32.506Z,99636.31
2018-07-20T14:11:03.470Z,99636.05
2018-07-20T14:13:34.542Z,99639.89
2018-07-20T14:16:05.534Z,99633.72
2018-07-20T14:18:36.512Z,99623.41
2018-07-20T14:21:07.512Z,99638.25
2018-07-20T14:23:38.545Z,99617.55
2018-07-20T14:26:09.679Z,99616.62
2018-07-20T14:28:40.572Z,99620.61
2018-07-20T14:31:11.542Z,99627.77
2018-07-20T14:33:42.474Z,99622.84
2018-07-20T14:36:13.801Z,99624.12
2018-07-20T14:38:44.056Z,99626.83
2018-07-20T14:41:15.371Z,99618.83
2018-07-20T14:43:46.393Z,99626.17
2018-07-20T14:46:17.498Z,99620.79
2018-07-20T14:48:48.495Z,99617.20
2018-07-20T14:51:19.519Z,99615.03
2018-07-20T14:53:50.437Z,99613.23
2018-07-20T14:56:21.454Z,99617.89
2018-07-20T14:58:52.490Z,99612.42
2018-07-20T15:01:23.475Z,99600.89
2018-07-20T15:03:54.468Z,99606.03
2018-07-20T15:06:25.493Z,99605.17
2018-07-20T15:08:56.456Z,99596.22
2018-07-20T15:11:27.467Z,99599.27
2018-07-20T15:13:58.495Z,99599.59
2018-07-20T15:16:29.552Z,99596.97
2018-07-20T15:19:00.588Z,99606.62
2018-07-20T15:21:31.525Z,99591.73
2018-07-20T15:24:02.780Z,99594.18
2018-07-20T15:26:34.425Z,99586.52
2018-07-20T15:29:05.481Z,99579.23
2018-07-20T15:31:36.534Z,99582.97
2018-07-20T15:34:07.517Z,99576.67
2018-07-20T15:36:38.595Z,99570.55
2018-07-20T15:39:12.769Z,99573.42
2018-07-20T15:41:43.599Z,99570.50
2018-07-20T15:44:14.491Z,99571.69
2018-07-20T15:46:45.546Z,99563.70
2018-07-20T15:49:16.467Z,99559.16
2018-07-20T15:54:18.558Z,99552.72
2018-07-20T15:56:49.565Z,99547.58
2018-07-20T15:59:20.505Z,99540.73
2018-07-20T16:01:51.486Z,99531.75
2018-07-20T16:04:22.534Z,99533.92
2018-07-20T16:06:53.479Z,99535.00
2018-07-20T16:09:24.474Z,99529.84
2018-07-20T16:11:55.667Z,99530.86
2018-07-20T16:14:26.473Z,99526.19
2018-07-20T16:16:57.472Z,99530.77
2018-07-20T16:19:28.497Z,99525.81
2018-07-20T16:21:59.485Z,99528.58
2018-07-20T16:24:30.485Z,99517.08
2018-07-20T16:27:01.509Z,99522.09
2018-07-20T16:29:32.461Z,99518.38
2018-07-20T16:32:03.485Z,99523.74
2018-07-20T16:34:34.473Z,99522.97
2018-07-20T16:37:05.549Z,99522.72
2018-07-20T16:39:36.484Z,99515.09
2018-07-20T16:42:07.465Z,99515.16
2018-07-20T16:44:38.466Z,99510.74
2018-07-20T16:47:09.538Z,99510.74
2018-07-20T16:49:40.508Z,99503.09
2018-07-20T16:52:11.496Z,99495.69
2018-07-20T16:54:42.493Z,99479.58
2018-07-20T16:57:13.492Z,99485.32
2018-07-20T16:59:44.490Z,99485.11
2018-07-20T17:02:15.471Z,99481.32
2018-07-20T17:04:46.476Z,99483.52
2018-07-20T17:07:17.499Z,99483.25
2018-07-20T17:09:48.490Z,99482.67
2018-07-20T17:12:19.529Z,99481.87
2018-07-20T17:14:50.569Z,99483.23
2018-07-20T17:17:21.516Z,99489.23
2018-07-20T17:19:55.852Z,99479.95
2018-07-20T17:23:02.246Z,99494.69
2018-07-20T17:25:33.413Z,99487.04
2018-07-20T17:28:04.812Z,99487.05
2018-07-20T17:30:36.735Z,99481.03
2018-07-20T17:33:13.003Z,99489.50
2018-07-20T17:35:44.212Z,99480.52
2018-07-20T17:38:25.711Z,99491.94
2018-07-20T17:40:58.300Z,99497.13
2018-07-20T17:43:34.302Z,99493.06
2018-07-20T17:46:10.921Z,99494.12
2018-07-20T17:48:45.178Z,99501.52
2018-07-20T17:51:18.483Z,99495.52
2018-07-20T17:53:51.251Z,99497.41
2018-07-20T17:56:27.419Z,99501.69
2018-07-20T17:58:59.254Z,99502.23
2018-07-20T18:01:31.999Z,99509.62
2018-07-20T18:04:04.389Z,99499.81
2018-07-20T18:06:44.369Z,99498.13
2018-07-20T18:09:23.384Z,99499.47
2018-07-20T18:11:55.862Z,99496.78
2018-07-20T18:14:27.293Z,99497.59
2018-07-20T18:16:58.696Z,99496.53
2018-07-20T18:19:29.572Z,99494.28
2018-07-20T18:22:00.658Z,99490.78
2018-07-20T18:24:31.656Z,99498.91
2018-07-20T18:27:03.364Z,99494.27
2018-07-20T18:29:34.570Z,99492.67
2018-07-20T18:32:05.558Z,99496.73
2018-07-20T18:34:37.482Z,99500.50
2018-07-20T18:37:08.762Z,99493.98
2018-07-20T18:39:39.758Z,99498.55
2018-07-20T18:42:11.690Z,99496.86
2018-07-20T18:44:43.122Z,99499.91
2018-07-20T18:47:14.395Z,99500.70
2018-07-20T18:49:49.534Z,99505.86
2018-07-20T18:52:23.633Z,99503.38
2018-07-20T18:54:57.213Z,99502.83
2018-07-20T18:57:29.211Z,99495.16
2018-07-20T19:00:00.403Z,99487.22
2018-07-20T19:02:31.492Z,99482.80
2018-07-20T19:05:02.501Z,99482.00
2018-07-20T19:07:33.471Z,99487.95
2018-07-20T19:10:04.467Z,99480.27
2018-07-20T19:12:38.647Z,99482.12
2018-07-20T19:15:10.433Z,99477.21
2018-07-20T19:17:50.237Z,99484.49
2018-07-20T19:20:28.468Z,99483.96
2018-07-20T19:23:00.291Z,99487.95
2018-07-20T19:28:24.552Z,99491.18
2018-07-20T19:31:00.291Z,99489.95
2018-07-20T19:33:35.282Z,99489.42
2018-07-20T19:38:47.506Z,99488.77
2018-07-20T19:41:23.713Z,99493.08
2018-07-20T19:43:56.907Z,99497.83
2018-07-20T19:46:28.771Z,99499.46
2018-07-20T19:49:17.313Z,99498.59
2018-07-20T19:51:49.511Z,99500.73
2018-07-20T19:54:23.036Z,99497.75
2018-07-20T19:59:44.658Z,99497.33
2018-07-20T20:02:23.028Z,99495.18
2018-07-20T20:05:00.941Z,99495.18
2018-07-20T20:07:34.556Z,99493.30
2018-07-20T20:10:10.075Z,99492.42
2018-07-20T20:12:44.866Z,99488.88
2018-07-20T20:15:20.464Z,99483.40
2018-07-20T20:17:56.023Z,99486.69
2018-07-20T20:20:29.976Z,99482.87
2018-07-20T20:23:09.508Z,99485.86
2018-07-20T20:25:40.528Z,99480.11
2018-07-20T20:28:11.498Z,99481.62
2018-07-20T20:30:42.436Z,99482.36
2018-07-20T20:33:13.418Z,99484.86
2018-07-20T20:35:44.517Z,99483.14
2018-07-20T20:38:15.500Z,99486.43
2018-07-20T20:40:46.446Z,99481.04
2018-07-20T20:43:17.509Z,99475.79
2018-07-20T20:45:48.464Z,99484.11
2018-07-20T20:48:19.439Z,99488.02
2018-07-20T20:50:50.494Z,99484.74
2018-07-20T20:53:21.487Z,99483.48
2018-07-20T20:55:52.418Z,99485.62
2018-07-20T20:58:23.451Z,99488.55
2018-07-20T21:00:54.469Z,99489.12
2018-07-20T21:03:25.502Z,99487.19
2018-07-20T21:05:56.481Z,99490.75
2018-07-20T21:08:27.459Z,99486.00
2018-07-20T21:10:58.505Z,99492.25
2018-07-20T21:13:29.456Z,99477.32
2018-07-20T21:16:00.449Z,99481.93
2018-07-20T21:18:31.475Z,99471.89
2018-07-20T21:21:02.416Z,99472.43
2018-07-20T21:23:33.520Z,99469.48
2018-07-20T21:26:04.492Z,99468.36
2018-07-20T21:28:35.518Z,99463.17
2018-07-20T21:31:06.485Z,99471.06
2018-07-20T21:33:37.519Z,99468.88
2018-07-20T21:36:08.498Z,99475.52
2018-07-20T21:38:39.489Z,99476.66
2018-07-20T21:41:10.429Z,99470.31
2018-07-20T21:43:41.459Z,99471.23
2018-07-20T21:46:13.185Z,99473.53
2018-07-20T21:48:44.415Z,99472.48
2018-07-20T21:51:15.457Z,99472.60
2018-07-20T21:53:46.484Z,99478.58
2018-07-20T21:56:17.484Z,99472.38
2018-07-20T21:58:48.591Z,99481.40
2018-07-20T22:01:19.517Z,99481.72
2018-07-20T22:03:50.514Z,99484.50
2018-07-20T22:06:21.515Z,99486.05
2018-07-20T22:08:52.504Z,99479.72
2018-07-20T22:11:23.482Z,99481.55
2018-07-20T22:13:54.497Z,99485.32
2018-07-20T22:16:25.469Z,99484.47
2018-07-20T22:18:56.461Z,99489.44
2018-07-20T22:21:27.466Z,99484.55
2018-07-20T22:23:58.533Z,99481.04
2018-07-20T22:26:29.465Z,99484.63
2018-07-20T22:29:00.477Z,99480.45
2018-07-20T22:31:31.466Z,99480.98
2018-07-20T22:34:02.487Z,99479.14
2018-07-20T22:36:33.510Z,99482.28
2018-07-20T22:39:05.461Z,99481.52
2018-07-20T22:41:36.465Z,99476.34
2018-07-20T22:44:07.553Z,99478.80
2018-07-20T22:46:38.569Z,99480.92
2018-07-20T22:49:09.490Z,99478.08
2018-07-20T22:51:40.473Z,99478.11
2018-07-20T22:54:11.485Z,99473.27
2018-07-20T22:56:42.488Z,99471.92
2018-07-20T22:59:13.483Z,99470.81
2018-07-20T23:01:44.473Z,99464.30
2018-07-20T23:04:15.479Z,99467.86
2018-07-20T23:06:46.496Z,99469.58
2018-07-20T23:09:17.488Z,99470.29
2018-07-20T23:11:48.512Z,99468.51
2018-07-20T23:14:19.584Z,99472.16
2018-07-20T23:16:50.497Z,99469.89
2018-07-20T23:19:21.500Z,99468.02
2018-07-20T23:21:52.485Z,99459.10
2018-07-20T23:24:23.465Z,99458.79
2018-07-20T23:26:54.462Z,99458.97
2018-07-20T23:29:25.511Z,99461.50
2018-07-20T23:31:56.516Z,99455.81
2018-07-20T23:34:27.479Z,99454.63
2018-07-20T23:36:58.786Z,99456.09
2018-07-20T23:39:29.598Z,99453.03
2018-07-20T23:42:00.556Z,99446.70
2018-07-20T23:44:31.500Z,99443.99
2018-07-20T23:47:02.469Z,99446.11
2018-07-20T23:49:33.520Z,99442.02
2018-07-20T23:52:04.481Z,99441.19
2018-07-20T23:54:35.489Z,99442.30
2018-07-20T23:57:06.510Z,99444.72
2018-07-20T23:59:37.528Z,99443.23
